createdAt,value
2023-10-23T06:25:27.884Z,7.28
2023-10-23T06:27:59.148Z,918.80
2023-10-23T06:30:35.762Z,907.00
2023-10-23T06:33:09.407Z,937.58
2023-10-23T06:35:42.219Z,948.58
2023-10-23T06:38:13.803Z,960.47
2023-10-23T06:40:43.207Z,933.90
2023-10-23T06:43:17.063Z,942.88
2023-10-23T06:46:01.584Z,961.65
2023-10-23T06:48:37.567Z,962.53
2023-10-23T06:51:08.573Z,917.63
2023-10-23T06:53:44.342Z,910.10
2023-10-23T09:43:02.900Z,4.72
2023-10-23T09:45:36.472Z,635.05
2023-10-23T09:50:34.270Z,266.42
2023-10-23T09:55:47.221Z,927.90
2023-10-23T10:01:05.026Z,1027.15
2023-10-23T10:08:56.423Z,666.67
2023-10-23T10:11:30.141Z,5.45
2023-10-23T10:14:06.530Z,5.38
2023-10-23T10:16:41.062Z,4.85
2023-10-23T10:19:13.528Z,3.92
2023-10-23T10:22:09.752Z,4.63
2023-10-23T10:24:42.449Z,4.15
2023-10-23T10:27:17.138Z,5.90
2023-10-23T10:29:53.083Z,6.03
2023-10-23T10:57:55.218Z,868.95
2023-10-23T11:00:26.584Z,447.48
2023-10-23T11:02:59.882Z,395.52
2023-10-23T11:05:36.777Z,7.68
2023-10-23T11:08:19.966Z,4.70
2023-10-23T11:10:47.829Z,366.60
2023-10-23T11:13:21.681Z,16.67
2023-10-23T11:15:59.874Z,14.80
2023-10-23T11:18:34.639Z,4.75
2023-10-23T11:21:12.198Z,5.00
2023-10-23T11:23:57.952Z,5.50
2023-10-23T11:26:34.798Z,6.35
2023-10-23T11:29:11.223Z,143.18
2023-10-23T11:31:42.117Z,6.28
2023-10-23T11:34:12.619Z,419.30
2023-10-23T11:36:43.625Z,910.53
2023-10-23T11:39:27.038Z,731.28
2023-10-23T11:42:03.754Z,32.13
2023-10-23T11:44:33.699Z,158.57
2023-10-23T11:47:07.175Z,196.93
2023-10-23T11:52:08.868Z,1036.25
2023-10-23T11:54:44.176Z,864.85
2023-10-23T11:57:14.902Z,904.42
2023-10-23T11:59:53.751Z,5.70
2023-10-23T12:02:24.827Z,262.90
2023-10-23T12:04:57.707Z,631.13
2023-10-23T12:07:28.817Z,1045.57
2023-10-23T12:09:59.985Z,894.95
2023-10-23T12:12:35.679Z,983.17
2023-10-23T12:15:08.945Z,842.13
2023-10-23T12:17:41.379Z,940.55
2023-10-23T12:22:50.351Z,1061.18
2023-10-23T12:25:26.729Z,473.92
2023-10-23T12:27:57.316Z,911.75
2023-10-23T12:30:28.948Z,650.33
2023-10-23T12:33:17.649Z,1019.28
2023-10-23T12:36:04.729Z,912.80
2023-10-23T12:38:34.798Z,1022.55
2023-10-23T12:41:13.412Z,784.95
2023-10-23T12:43:52.685Z,969.47
2023-10-23T12:46:28.856Z,948.30
2023-10-23T12:49:05.899Z,977.40
2023-10-23T12:51:42.234Z,965.50
2023-10-23T12:54:19.015Z,942.53
2023-10-23T12:56:59.495Z,943.45
2023-10-23T12:59:44.924Z,934.58
2023-10-23T13:02:25.924Z,931.97
2023-10-23T13:05:01.744Z,922.63
2023-10-23T13:07:35.134Z,903.30
2023-10-23T13:10:07.128Z,902.90
2023-10-23T13:12:43.394Z,923.20
2023-10-23T13:28:17.011Z,830.17
2023-10-23T13:30:50.816Z,846.58
2023-10-23T13:33:27.107Z,2.47
2023-10-23T13:36:01.900Z,6.95
2023-10-23T13:38:36.346Z,13.40
2023-10-23T13:41:06.842Z,118.00
2023-10-23T13:43:47.744Z,4.28
2023-10-23T13:46:22.095Z,4.07
2023-10-23T13:49:01.297Z,3.47
2023-10-23T13:51:35.331Z,5.07
2023-10-23T13:54:13.526Z,736.70
2023-10-23T13:56:50.567Z,3.85
2023-10-23T13:59:28.222Z,882.28
2023-10-23T14:02:02.615Z,5.15
2023-10-23T14:04:42.767Z,4.93
2023-10-23T14:07:17.094Z,583.50
2023-10-23T14:09:50.479Z,657.08
2023-10-23T14:12:28.813Z,3.92
2023-10-23T14:14:59.514Z,4.50
2023-10-23T14:17:40.144Z,845.03
2023-10-23T14:20:14.713Z,875.50
2023-10-23T14:22:48.296Z,5.00
2023-10-23T14:25:21.604Z,426.90
2023-10-23T14:27:55.675Z,748.88
2023-10-23T14:30:33.604Z,736.80
2023-10-23T14:33:07.823Z,4.25
2023-10-23T14:35:47.901Z,2.28
2023-10-23T14:38:28.007Z,3.03
2023-10-23T14:41:06.751Z,4.53
2023-10-23T14:43:41.932Z,6.72
2023-10-23T14:46:14.982Z,653.17
2023-10-23T14:48:42.884Z,4.38
2023-10-23T14:51:13.672Z,123.20
2023-10-23T14:53:42.660Z,112.13
2023-10-23T14:56:16.866Z,185.60
2023-10-23T14:58:45.724Z,579.65
2023-10-23T15:01:16.447Z,551.17
2023-10-23T15:03:47.460Z,275.58
2023-10-23T15:06:19.186Z,2.47
2023-10-23T15:08:50.260Z,3.13
2023-10-23T15:11:20.166Z,2.88
2023-10-23T15:13:48.192Z,187.00
2023-10-23T15:16:18.556Z,464.52
2023-10-23T15:18:46.798Z,9.35
2023-10-23T15:21:16.308Z,894.28
2023-10-23T15:23:49.722Z,922.75
2023-10-23T15:28:45.171Z,3.22
2023-10-23T15:31:13.862Z,4.18
2023-10-23T15:33:41.721Z,4.68
2023-10-23T15:36:10.433Z,435.60
2023-10-23T15:38:40.143Z,2.75
2023-10-23T15:41:17.307Z,5.57
2023-10-23T15:43:50.749Z,3.90
2023-10-23T15:46:18.729Z,5.32
2023-10-23T15:48:49.545Z,848.17
2023-10-23T15:51:19.631Z,992.70
2023-10-23T15:53:51.971Z,867.08
2023-10-23T15:56:25.231Z,890.50
2023-10-23T15:58:55.892Z,831.60
2023-10-23T16:01:23.610Z,853.20
2023-10-23T16:03:56.128Z,839.97
2023-10-23T16:06:28.690Z,911.08
2023-10-23T16:09:09.335Z,853.13
2023-10-23T16:11:51.960Z,846.83
2023-10-23T16:14:25.849Z,839.58
2023-10-23T16:16:56.891Z,913.67
2023-10-23T16:19:30.038Z,133.60
2023-10-23T16:22:00.782Z,6.10
2023-10-23T16:24:28.428Z,5.25
2023-10-23T16:27:00.150Z,5.35
2023-10-23T16:29:27.943Z,5.10
2023-10-23T16:31:58.613Z,2.88
2023-10-23T16:34:28.560Z,73.70
2023-10-23T16:36:56.111Z,864.00
2023-10-23T16:39:31.674Z,862.13
2023-10-23T16:42:02.108Z,891.17
2023-10-23T16:44:44.388Z,904.97
2023-10-23T16:47:20.778Z,898.00
2023-10-23T16:49:49.186Z,979.08
2023-10-23T16:52:25.585Z,972.40
2023-10-23T16:54:56.033Z,971.42
2023-10-23T16:57:36.066Z,887.97
2023-10-23T17:00:23.175Z,918.75
2023-10-23T17:03:03.262Z,893.15
2023-10-23T17:05:45.759Z,954.58
2023-10-23T17:08:22.381Z,965.08
2023-10-23T17:11:09.516Z,960.33
2023-10-23T17:13:45.166Z,972.95
2023-10-23T17:16:21.166Z,887.58
2023-10-23T17:18:57.388Z,909.72
2023-10-23T17:21:36.587Z,964.60
2023-10-23T17:24:12.335Z,909.88
2023-10-23T17:29:24.605Z,819.40
2023-10-23T17:32:04.057Z,808.13
2023-10-23T17:34:42.795Z,820.70
2023-10-23T17:37:18.306Z,554.63
2023-10-23T17:39:55.083Z,665.87
2023-10-23T17:42:23.763Z,479.70
2023-10-23T17:45:01.795Z,754.77
2023-10-23T17:47:43.294Z,584.30
2023-10-23T17:50:19.137Z,530.75
2023-10-23T17:52:52.027Z,547.63
2023-10-23T17:55:31.049Z,2.75
2023-10-23T17:58:07.375Z,428.98
2023-10-23T18:00:46.110Z,419.13
2023-10-23T18:03:25.218Z,3.05
2023-10-23T18:05:58.470Z,761.53
2023-10-23T18:08:35.320Z,2.03
2023-10-23T18:11:14.902Z,2.40
2023-10-23T18:13:47.848Z,4.45
2023-10-23T18:16:24.272Z,3.30
2023-10-23T18:19:04.262Z,1.90
2023-10-23T18:21:40.773Z,1.77
2023-10-23T18:24:22.934Z,3.92
2023-10-23T18:26:56.733Z,2.90
2023-10-23T18:29:44.341Z,4.22
2023-10-23T18:32:18.162Z,3.08
2023-10-23T18:34:58.546Z,3.03
2023-10-23T18:37:31.598Z,2.97
2023-10-23T18:40:06.119Z,1.92
2023-10-23T18:42:41.416Z,1.92
2023-10-23T18:45:19.514Z,2.05
2023-10-23T18:47:55.701Z,2.90
2023-10-23T18:50:31.696Z,3.10
2023-10-23T18:53:07.525Z,1.90
2023-10-23T18:55:41.124Z,3.17
2023-10-23T18:58:21.077Z,2.42
2023-10-23T19:00:53.877Z,4.22
2023-10-23T19:03:30.118Z,2.30
2023-10-23T19:06:06.172Z,2.10
2023-10-23T19:08:44.047Z,4.30
2023-10-23T19:11:23.168Z,3.30
2023-10-23T19:14:00.032Z,3.97
2023-10-23T19:16:38.786Z,3.92
2023-10-23T19:19:11.967Z,3.40
2023-10-23T19:21:47.057Z,4.00
2023-10-23T19:24:23.691Z,2.78
2023-10-23T19:26:56.802Z,2.83
2023-10-23T19:29:38.953Z,3.35
2023-10-23T19:32:15.944Z,2.50
2023-10-23T19:34:52.882Z,3.50
2023-10-23T19:37:27.033Z,2.35
2023-10-23T19:39:57.970Z,3.53
2023-10-23T19:42:40.311Z,2.85
2023-10-23T19:45:14.263Z,4.90
2023-10-23T19:47:51.496Z,3.40
2023-10-23T19:50:22.491Z,3.95
2023-10-23T19:53:04.648Z,3.80
2023-10-23T19:55:43.129Z,2.20
2023-10-23T19:58:24.184Z,2.88
2023-10-23T20:01:00.640Z,4.55
2023-10-23T20:03:36.814Z,2.65
2023-10-23T20:06:13.403Z,2.08
2023-10-23T20:08:46.425Z,3.20
2023-10-23T20:11:19.460Z,4.47
2023-10-23T20:13:58.216Z,3.55
2023-10-23T20:16:38.920Z,4.97
2023-10-23T20:19:18.169Z,4.95
2023-10-23T20:21:59.411Z,2.78
2023-10-23T20:24:35.526Z,3.15
2023-10-23T20:27:12.390Z,2.47
2023-10-23T20:29:51.325Z,3.70
2023-10-23T20:32:26.052Z,4.00
2023-10-23T20:34:59.206Z,4.45
2023-10-23T20:37:38.537Z,3.60
2023-10-23T20:40:10.509Z,2.80
2023-10-23T20:42:46.374Z,3.40
2023-10-23T20:45:19.556Z,4.65
2023-10-23T20:47:53.688Z,3.83
2023-10-23T20:50:30.182Z,4.68
2023-10-23T20:53:03.731Z,3.70
2023-10-23T20:55:40.869Z,3.53
2023-10-23T20:58:16.851Z,2.80
2023-10-23T21:00:57.694Z,3.97
2023-10-23T21:03:31.363Z,5.70
2023-10-23T21:06:08.663Z,2.60
2023-10-23T21:08:48.403Z,3.42
2023-10-23T21:11:24.346Z,2.67
2023-10-23T21:14:00.530Z,4.13
2023-10-23T21:16:40.099Z,3.70
2023-10-23T21:19:10.325Z,3.33
2023-10-23T21:21:50.218Z,5.28
2023-10-23T21:24:23.379Z,4.50
2023-10-23T21:26:59.071Z,4.60
2023-10-23T21:29:34.625Z,2.83
2023-10-23T21:32:12.509Z,3.60
2023-10-23T21:34:48.137Z,2.88
2023-10-23T21:37:18.589Z,2.85
2023-10-23T21:39:51.548Z,3.15
2023-10-23T21:42:30.041Z,3.78
2023-10-23T21:45:04.577Z,4.40
2023-10-23T21:47:46.271Z,3.63
2023-10-23T21:50:22.236Z,3.58
2023-10-23T21:52:49.935Z,3.90
2023-10-23T21:55:25.969Z,3.28
2023-10-23T21:58:05.858Z,1.90
2023-10-23T22:00:39.128Z,4.60
2023-10-23T22:03:19.406Z,2.80
2023-10-23T22:05:53.290Z,5.30
2023-10-23T22:08:29.303Z,2.97
2023-10-23T22:11:02.487Z,4.15
2023-10-23T22:13:39.219Z,3.00
2023-10-23T22:16:18.690Z,2.90
2023-10-23T22:18:55.126Z,3.33
2023-10-23T22:21:33.659Z,1.88
2023-10-23T22:24:07.554Z,4.95
2023-10-23T22:26:46.276Z,3.72
2023-10-23T22:29:22.378Z,3.83
2023-10-23T22:31:58.135Z,2.97
2023-10-23T22:37:55.758Z,2.72
2023-10-23T22:40:17.192Z,3.47
2023-10-23T22:42:53.148Z,3.85
2023-10-23T22:45:31.727Z,2.80
2023-10-23T22:48:05.447Z,4.22
2023-10-23T22:50:39.424Z,2.97
2023-10-23T22:53:12.220Z,4.18
2023-10-23T22:55:42.911Z,4.57
2023-10-23T22:58:19.430Z,3.78
2023-10-23T23:03:36.293Z,3.70
2023-10-23T23:06:13.854Z,3.88
2023-10-23T23:08:51.519Z,3.65
2023-10-23T23:11:29.460Z,3.15
2023-10-23T23:14:09.432Z,4.60
2023-10-23T23:16:49.366Z,3.53
2023-10-23T23:19:33.884Z,3.53
2023-10-23T23:22:09.856Z,4.18
2023-10-23T23:24:54.650Z,4.13
2023-10-23T23:27:28.146Z,3.95
2023-10-23T23:30:06.989Z,1.90
2023-10-23T23:32:43.998Z,4.32
2023-10-23T23:35:20.498Z,3.55
2023-10-23T23:37:55.725Z,4.78
2023-10-23T23:40:34.598Z,4.07
2023-10-23T23:43:11.002Z,3.20
2023-10-23T23:45:47.182Z,2.83
2023-10-23T23:48:20.431Z,3.03
2023-10-23T23:50:59.136Z,4.53
2023-10-23T23:53:34.891Z,4.63
2023-10-23T23:56:14.485Z,3.50
2023-10-23T23:58:56.052Z,4.55
